createdAt,value
2018-04-24T00:00:18.002Z,31.03
2018-04-24T00:02:47.991Z,30.97
2018-04-24T00:05:18.021Z,29.90
2018-04-24T00:07:48.253Z,28.97
2018-04-24T00:10:17.721Z,32.10
2018-04-24T00:12:47.386Z,33.83
2018-04-24T00:15:18.115Z,33.80
2018-04-24T00:17:48.819Z,44.03
2018-04-24T00:20:20.457Z,41.70
2018-04-24T00:22:50.437Z,47.37
2018-04-24T00:25:20.392Z,46.53
2018-04-24T00:27:50.619Z,38.53
2018-04-24T00:30:20.522Z,35.00
2018-04-24T00:32:51.513Z,36.70
2018-04-24T00:35:21.602Z,30.40
2018-04-24T00:37:51.933Z,29.10
2018-04-24T00:40:21.887Z,29.93
2018-04-24T00:42:52.117Z,35.37
2018-04-24T00:45:22.405Z,34.87
2018-04-24T00:47:52.327Z,36.50
2018-04-24T00:50:22.368Z,32.67
2018-04-24T00:52:52.202Z,34.17
2018-04-24T00:55:22.268Z,37.47
2018-04-24T00:57:52.159Z,38.90
2018-04-24T01:00:22.713Z,39.60
2018-04-24T01:02:52.580Z,39.63
2018-04-24T01:05:22.562Z,37.87
2018-04-24T01:07:52.590Z,42.23
2018-04-24T01:10:23.700Z,40.22
2018-04-24T01:12:53.780Z,39.40
2018-04-24T01:15:23.773Z,37.10
2018-04-24T01:17:53.923Z,35.23
2018-04-24T01:20:24.663Z,33.27
2018-04-24T01:22:54.776Z,30.80
2018-04-24T01:25:24.480Z,30.03
2018-04-24T01:27:54.378Z,34.50
2018-04-24T01:30:24.379Z,27.47
2018-04-24T01:32:54.134Z,30.13
2018-04-24T01:35:24.125Z,28.57
2018-04-24T01:37:54.232Z,43.27
2018-04-24T01:40:24.255Z,40.83
2018-04-24T01:42:54.862Z,38.67
2018-04-24T01:45:25.028Z,34.13
2018-04-24T01:47:54.777Z,32.50
2018-04-24T01:50:24.787Z,31.43
2018-04-24T01:52:54.696Z,38.27
2018-04-24T01:55:24.583Z,40.57
2018-04-24T01:57:55.340Z,39.90
2018-04-24T02:00:25.912Z,33.83
2018-04-24T02:02:56.161Z,29.87
2018-04-24T02:05:26.429Z,37.83
2018-04-24T02:07:56.153Z,42.27
2018-04-24T02:10:25.963Z,36.80
2018-04-24T02:12:55.975Z,33.60
2018-04-24T02:15:26.153Z,34.63
2018-04-24T02:17:56.805Z,39.83
2018-04-24T02:20:26.678Z,33.53
2018-04-24T02:22:56.657Z,43.57
2018-04-24T02:25:26.645Z,36.90
2018-04-24T02:27:56.499Z,38.70
2018-04-24T02:30:26.390Z,39.00
2018-04-24T02:32:56.360Z,41.50
2018-04-24T02:35:26.663Z,30.93
2018-04-24T02:37:56.683Z,41.77
2018-04-24T02:40:30.426Z,45.43
2018-04-24T02:43:00.685Z,44.27
2018-04-24T02:45:31.157Z,47.27
2018-04-24T02:48:00.974Z,41.63
2018-04-24T02:50:31.116Z,36.87
2018-04-24T02:53:01.246Z,48.77
2018-04-24T02:55:31.175Z,39.80
2018-04-24T02:58:01.096Z,43.83
2018-04-24T03:00:31.127Z,57.90
2018-04-24T03:03:02.158Z,57.30
2018-04-24T03:05:32.260Z,56.67
2018-04-24T03:08:01.955Z,55.33
2018-04-24T03:10:32.070Z,58.63
2018-04-24T03:13:01.862Z,57.53
2018-04-24T03:15:31.843Z,52.70
2018-04-24T03:18:01.653Z,42.70
2018-04-24T03:20:32.511Z,45.00
2018-04-24T03:23:02.736Z,38.50
2018-04-24T03:25:32.617Z,39.23
2018-04-24T03:28:02.689Z,40.63
2018-04-24T03:30:32.912Z,40.87
2018-04-24T03:33:02.906Z,39.57
2018-04-24T03:35:32.970Z,31.77
2018-04-24T03:38:02.978Z,35.23
2018-04-24T03:40:32.921Z,36.47
2018-04-24T03:43:02.865Z,31.47
2018-04-24T03:45:33.021Z,35.83
2018-04-24T03:48:04.105Z,35.07
2018-04-24T03:50:34.111Z,33.53
2018-04-24T03:53:04.095Z,29.87
2018-04-24T03:55:34.258Z,21.27
2018-04-24T03:58:04.498Z,17.37
2018-04-24T04:00:34.609Z,19.87
2018-04-24T04:03:05.169Z,20.47
2018-04-24T04:05:35.080Z,25.17
2018-04-24T04:08:05.400Z,26.97
2018-04-24T04:10:35.441Z,26.57
2018-04-24T04:13:05.432Z,30.97
2018-04-24T04:15:35.509Z,32.40
2018-04-24T04:18:16.740Z,36.47
2018-04-24T04:20:59.274Z,38.50
2018-04-24T04:23:40.554Z,37.37
2018-04-24T04:26:10.627Z,33.53
2018-04-24T04:28:40.628Z,39.63
2018-04-24T04:31:11.410Z,60.37
2018-04-24T04:33:41.911Z,39.43
2018-04-24T04:36:12.249Z,35.83
2018-04-24T04:38:42.168Z,31.00
2018-04-24T04:41:12.852Z,31.13
2018-04-24T04:43:43.064Z,30.67
2018-04-24T04:46:13.245Z,32.27
2018-04-24T04:48:43.859Z,35.17
2018-04-24T04:51:13.933Z,31.87
2018-04-24T04:53:43.832Z,32.60
2018-04-24T04:56:14.029Z,38.07
2018-04-24T04:58:43.757Z,38.33
2018-04-24T05:01:13.899Z,39.73
2018-04-24T05:03:43.880Z,38.40
2018-04-24T05:06:13.916Z,37.73
2018-04-24T05:08:44.434Z,38.00
2018-04-24T05:11:14.478Z,33.90
2018-04-24T05:13:44.691Z,35.33
2018-04-24T05:16:14.740Z,34.83
2018-04-24T05:18:45.662Z,33.90
2018-04-24T05:21:15.695Z,33.47
2018-04-24T05:23:45.578Z,33.23
2018-04-24T05:26:15.826Z,33.27
2018-04-24T05:28:45.908Z,32.87
2018-04-24T05:31:15.866Z,30.97
2018-04-24T05:33:46.298Z,32.03
2018-04-24T05:36:16.213Z,32.47
2018-04-24T05:38:46.256Z,30.63
2018-04-24T05:41:16.242Z,31.57
2018-04-24T05:43:46.550Z,31.20
2018-04-24T05:46:17.293Z,28.60
2018-04-24T05:48:47.623Z,30.67
2018-04-24T05:51:18.462Z,26.00
2018-04-24T05:53:48.431Z,26.57
2018-04-24T05:56:18.975Z,25.90
2018-04-24T05:58:48.855Z,26.70
2018-04-24T06:01:20.756Z,25.23
2018-04-24T06:03:50.976Z,26.27
2018-04-24T06:06:21.116Z,25.90
2018-04-24T06:08:51.097Z,26.57
2018-04-24T06:11:21.832Z,24.13
2018-04-24T06:13:51.918Z,25.93
2018-04-24T06:16:22.008Z,24.30
2018-04-24T06:18:52.304Z,26.30
2018-04-24T06:21:22.508Z,23.17
2018-04-24T06:23:52.439Z,23.63
2018-04-24T06:26:22.652Z,17.27
2018-04-24T06:28:52.572Z,18.60
2018-04-24T06:31:23.245Z,20.47
2018-04-24T06:33:53.029Z,20.50
2018-04-24T06:36:22.932Z,20.50
2018-04-24T06:38:53.269Z,20.37
2018-04-24T06:41:23.739Z,19.73
2018-04-24T06:43:53.687Z,21.17
2018-04-24T06:46:23.610Z,19.70
2018-04-24T06:48:53.479Z,16.37
2018-04-24T06:51:23.785Z,18.10
2018-04-24T06:53:53.722Z,18.77
2018-04-24T06:56:24.433Z,18.50
2018-04-24T06:58:54.664Z,17.60
2018-04-24T07:01:25.063Z,16.73
2018-04-24T07:03:55.867Z,14.87
2018-04-24T07:06:25.892Z,17.43
2018-04-24T07:08:55.869Z,14.20
2018-04-24T07:11:28.976Z,17.47
2018-04-24T07:13:58.951Z,17.27
2018-04-24T07:16:29.416Z,16.60
2018-04-24T07:18:59.572Z,16.93
2018-04-24T07:21:30.901Z,16.02
2018-04-24T07:24:00.982Z,16.90
2018-04-24T07:26:31.474Z,18.07
2018-04-24T07:29:01.605Z,16.53
2018-04-24T07:31:31.954Z,15.13
2018-04-24T07:34:01.923Z,16.00
2018-04-24T07:36:31.890Z,13.27
2018-04-24T07:39:02.028Z,15.70
2018-04-24T07:41:32.036Z,15.37
2018-04-24T07:44:02.018Z,13.67
2018-04-24T07:46:33.276Z,13.40
2018-04-24T07:49:03.464Z,14.50
2018-04-24T07:51:33.889Z,13.20
2018-04-24T07:54:03.793Z,12.60
2018-04-24T07:56:34.536Z,12.60
2018-04-24T07:59:04.292Z,12.07
2018-04-24T08:01:34.543Z,12.27
2018-04-24T08:04:04.536Z,13.20
2018-04-24T08:06:34.488Z,13.57
2018-04-24T08:09:04.148Z,12.73
2018-04-24T08:11:34.834Z,13.57
2018-04-24T08:14:04.896Z,11.30
2018-04-24T08:16:34.780Z,12.20
2018-04-24T08:19:04.710Z,13.83
2018-04-24T08:21:34.723Z,14.87
2018-04-24T08:24:04.824Z,14.77
2018-04-24T08:26:34.862Z,16.13
2018-04-24T08:29:05.687Z,14.07
2018-04-24T08:31:35.806Z,14.37
2018-04-24T08:34:06.664Z,13.80
2018-04-24T08:36:36.514Z,17.13
2018-04-24T08:39:06.578Z,15.50
2018-04-24T08:41:37.399Z,17.40
2018-04-24T08:44:07.681Z,18.37
2018-04-24T08:46:37.582Z,18.17
2018-04-24T08:49:08.550Z,20.10
2018-04-24T08:51:38.423Z,17.03
2018-04-24T08:54:08.375Z,17.47
2018-04-24T08:56:38.386Z,18.07
2018-04-24T08:59:08.326Z,18.17
2018-04-24T09:01:38.995Z,17.97
2018-04-24T09:04:09.645Z,17.67
2018-04-24T09:06:39.816Z,17.70
2018-04-24T09:09:09.818Z,17.33
2018-04-24T09:11:39.766Z,18.60
2018-04-24T09:14:10.115Z,18.93
2018-04-24T09:16:40.707Z,19.90
2018-04-24T09:19:10.980Z,19.90
2018-04-24T09:21:41.220Z,19.60
2018-04-24T09:24:11.071Z,20.27
2018-04-24T09:26:41.351Z,18.87
2018-04-24T09:29:11.515Z,19.33
2018-04-24T09:31:44.563Z,20.77
2018-04-24T09:34:15.665Z,19.50
2018-04-24T09:36:45.995Z,20.03
2018-04-24T09:39:15.976Z,20.17
2018-04-24T09:41:45.838Z,19.73
2018-04-24T09:44:16.769Z,19.00
2018-04-24T09:46:46.785Z,19.87
2018-04-24T09:49:17.352Z,20.13
2018-04-24T09:51:47.167Z,18.83
2018-04-24T09:54:17.650Z,20.27
2018-04-24T09:56:47.901Z,20.73
2018-04-24T09:59:17.971Z,19.63
2018-04-24T10:01:49.165Z,18.90
2018-04-24T10:04:20.015Z,19.37
2018-04-24T10:06:50.485Z,19.60
2018-04-24T10:09:20.981Z,19.37
2018-04-24T10:11:50.878Z,19.60
2018-04-24T10:14:21.016Z,19.30
2018-04-24T10:16:51.099Z,19.97
2018-04-24T10:19:21.072Z,19.73
2018-04-24T10:21:51.250Z,20.00
2018-04-24T10:24:21.337Z,18.23
2018-04-24T10:26:51.814Z,18.40
2018-04-24T10:29:21.841Z,20.80
2018-04-24T10:31:54.110Z,18.33
2018-04-24T10:34:24.803Z,18.47
2018-04-24T10:36:54.555Z,18.57
2018-04-24T10:39:24.719Z,18.87
2018-04-24T10:41:55.749Z,18.70
2018-04-24T10:44:26.097Z,18.57
2018-04-24T10:46:56.643Z,19.67
2018-04-24T10:49:27.119Z,16.93
2018-04-24T10:51:57.278Z,16.13
2018-04-24T10:54:27.993Z,18.17
2018-04-24T10:56:58.104Z,18.90
2018-04-24T10:59:28.042Z,18.80
2018-04-24T11:01:58.194Z,17.37
2018-04-24T11:04:28.769Z,15.17
2018-04-24T11:06:59.114Z,16.63
2018-04-24T11:09:30.268Z,12.87
2018-04-24T11:12:00.256Z,13.93
2018-04-24T11:14:30.583Z,15.67
2018-04-24T11:17:00.695Z,15.63
2018-04-24T11:19:31.296Z,14.50
2018-04-24T11:22:01.519Z,14.33
2018-04-24T11:24:31.614Z,14.87
2018-04-24T11:27:02.134Z,16.13
2018-04-24T11:29:32.044Z,14.27
2018-04-24T11:32:02.313Z,14.20
2018-04-24T11:34:33.126Z,14.23
2018-04-24T11:37:03.939Z,14.30
2018-04-24T11:39:34.444Z,14.00
2018-04-24T11:42:05.273Z,14.20
2018-04-24T11:44:35.947Z,14.77
2018-04-24T11:47:06.937Z,13.43
2018-04-24T11:49:37.459Z,14.07
2018-04-24T11:52:12.850Z,15.25
2018-04-24T11:54:42.856Z,13.87
2018-04-24T11:57:12.976Z,13.67
2018-04-24T11:59:43.780Z,14.20
2018-04-24T12:02:14.167Z,14.07
2018-04-24T12:04:44.124Z,13.70
2018-04-24T12:07:14.182Z,14.73
2018-04-24T12:09:45.028Z,15.27
2018-04-24T12:12:16.488Z,16.20
2018-04-24T12:14:46.484Z,16.53
2018-04-24T12:17:16.237Z,14.43
2018-04-24T12:19:46.698Z,14.93
2018-04-24T12:22:16.578Z,14.77
2018-04-24T12:24:46.529Z,15.50
2018-04-24T12:27:17.372Z,15.27
2018-04-24T12:29:47.401Z,15.53
2018-04-24T12:32:17.260Z,15.30
2018-04-24T12:34:47.346Z,15.57
2018-04-24T12:37:17.748Z,15.83
2018-04-24T12:39:47.788Z,15.40
2018-04-24T12:42:17.828Z,14.47
2018-04-24T12:44:47.568Z,15.83
2018-04-24T12:47:17.681Z,15.17
2018-04-24T12:49:47.742Z,15.13
2018-04-24T12:52:19.281Z,15.63
2018-04-24T12:54:49.143Z,15.43
2018-04-24T12:57:19.922Z,15.40
2018-04-24T12:59:52.714Z,15.40
2018-04-24T13:02:23.008Z,15.33
2018-04-24T13:04:53.036Z,12.00
2018-04-24T13:07:23.142Z,11.13
2018-04-24T13:09:53.264Z,10.40
2018-04-24T13:12:23.376Z,9.37
2018-04-24T13:14:53.117Z,10.90
2018-04-24T13:17:23.308Z,10.53
2018-04-24T13:19:53.554Z,9.63
2018-04-24T13:22:24.891Z,10.07
2018-04-24T13:24:55.083Z,9.20
2018-04-24T13:27:25.505Z,8.93
2018-04-24T13:29:55.605Z,9.17
2018-04-24T13:32:25.666Z,7.43
2018-04-24T13:34:55.937Z,8.37
2018-04-24T13:37:26.288Z,8.23
2018-04-24T13:39:56.826Z,7.97
2018-04-24T13:42:26.955Z,8.27
2018-04-24T13:44:57.069Z,8.83
2018-04-24T13:47:27.130Z,7.67
2018-04-24T13:49:57.641Z,7.93
2018-04-24T13:52:28.721Z,7.53
2018-04-24T13:54:59.033Z,7.47
2018-04-24T13:57:28.967Z,8.53
2018-04-24T13:59:59.276Z,7.80
2018-04-24T14:02:30.691Z,8.63
2018-04-24T14:05:00.667Z,8.97
2018-04-24T14:07:31.399Z,10.17
2018-04-24T14:10:01.885Z,10.13
2018-04-24T14:12:32.387Z,9.73
2018-04-24T14:15:02.543Z,10.37
2018-04-24T14:17:32.664Z,10.97
2018-04-24T14:20:02.979Z,10.57
2018-04-24T14:22:33.651Z,10.87
2018-04-24T14:25:05.200Z,9.83
2018-04-24T14:27:35.452Z,9.90
2018-04-24T14:30:05.482Z,10.60
2018-04-24T14:32:36.064Z,11.30
2018-04-24T14:35:07.103Z,10.80
2018-04-24T14:37:37.305Z,11.17
2018-04-24T14:40:07.391Z,11.70
2018-04-24T14:42:37.985Z,10.87
2018-04-24T14:45:07.921Z,11.80
2018-04-24T14:47:38.311Z,10.70
2018-04-24T14:50:08.770Z,11.00
2018-04-24T14:52:39.112Z,10.13
2018-04-24T14:55:09.114Z,9.43
2018-04-24T14:57:39.413Z,10.87
2018-04-24T15:00:12.938Z,10.82
2018-04-24T15:02:43.997Z,11.00
2018-04-24T15:05:14.976Z,11.23
2018-04-24T15:07:45.366Z,12.00
2018-04-24T15:10:15.716Z,11.20
2018-04-24T15:12:46.093Z,11.13
2018-04-24T15:15:17.100Z,11.00
2018-04-24T15:17:47.470Z,11.07
2018-04-24T15:20:17.951Z,10.60
2018-04-24T15:22:47.779Z,10.87
2018-04-24T15:25:18.884Z,11.00
2018-04-24T15:27:50.122Z,10.73
2018-04-24T15:30:20.511Z,11.20
2018-04-24T15:32:50.784Z,10.00
2018-04-24T15:35:21.657Z,10.50
2018-04-24T15:37:52.101Z,10.30
2018-04-24T15:40:22.559Z,9.23
2018-04-24T15:42:53.116Z,10.13
2018-04-24T15:45:24.505Z,9.23
2018-04-24T15:47:55.380Z,9.50
2018-04-24T15:50:26.589Z,9.50
2018-04-24T15:52:56.797Z,10.23
2018-04-24T15:55:26.978Z,9.07
2018-04-24T15:57:57.400Z,9.10
2018-04-24T16:00:28.961Z,8.53
2018-04-24T16:02:59.451Z,8.67
2018-04-24T16:05:30.082Z,8.60
2018-04-24T16:08:02.042Z,8.83
2018-04-24T16:10:32.763Z,9.90
2018-04-24T16:13:03.446Z,10.00
2018-04-24T16:15:33.744Z,9.47
2018-04-24T16:18:04.409Z,8.50
2018-04-24T16:20:35.389Z,8.57
2018-04-24T16:23:05.801Z,8.77
2018-04-24T16:25:36.440Z,8.67
2018-04-24T16:28:07.139Z,8.63
2018-04-24T16:30:37.551Z,8.70
2018-04-24T16:33:08.021Z,8.63
2018-04-24T16:35:38.288Z,9.97
2018-04-24T16:38:08.534Z,9.87
2018-04-24T16:40:39.611Z,9.03
2018-04-24T16:43:10.221Z,7.93
2018-04-24T16:45:41.291Z,7.67
2018-04-24T16:48:12.017Z,7.00
2018-04-24T16:50:42.345Z,7.10
2018-04-24T16:53:12.699Z,7.30
2018-04-24T16:55:43.038Z,7.13
2018-04-24T16:58:13.372Z,7.10
2018-04-24T17:00:44.254Z,6.57
2018-04-24T17:03:15.404Z,6.73
2018-04-24T17:05:47.058Z,6.17
2018-04-24T17:08:22.230Z,5.30
2018-04-24T17:10:55.793Z,5.73
2018-04-24T17:13:26.142Z,6.67
2018-04-24T17:15:56.757Z,6.33
2018-04-24T17:18:27.563Z,6.33
2018-04-24T17:20:58.217Z,5.93
2018-04-24T17:23:28.706Z,6.00
2018-04-24T17:25:59.595Z,6.37
2018-04-24T17:28:29.986Z,6.83
2018-04-24T17:31:00.849Z,7.37
2018-04-24T17:33:31.959Z,7.70
2018-04-24T17:36:02.290Z,7.27
2018-04-24T17:38:32.669Z,7.67
2018-04-24T17:41:03.683Z,6.83
2018-04-24T17:43:34.342Z,6.53
2018-04-24T17:46:04.976Z,6.57
2018-04-24T17:48:35.419Z,7.30
2018-04-24T17:51:05.996Z,8.07
2018-04-24T17:53:36.348Z,9.33
2018-04-24T17:56:07.376Z,9.40
2018-04-24T17:58:37.886Z,8.67
2018-04-24T18:01:08.617Z,8.50
2018-04-24T18:03:39.143Z,8.13
2018-04-24T18:06:09.903Z,7.73
2018-04-24T18:08:40.214Z,8.73
2018-04-24T18:11:10.715Z,7.70
2018-04-24T18:13:41.176Z,8.47
2018-04-24T18:16:11.757Z,8.23
2018-04-24T18:18:42.478Z,8.20
2018-04-24T18:21:13.053Z,8.17
2018-04-24T18:23:43.546Z,8.53
2018-04-24T18:26:15.869Z,9.03
2018-04-24T18:28:46.590Z,8.70
2018-04-24T18:31:17.555Z,9.07
2018-04-24T18:33:47.892Z,7.90
2018-04-24T18:36:19.584Z,7.73
2018-04-24T18:38:51.465Z,9.00
2018-04-24T18:41:21.887Z,7.90
2018-04-24T18:43:52.516Z,6.70
2018-04-24T18:46:22.951Z,6.40
2018-04-24T18:48:54.057Z,6.90
2018-04-24T18:51:24.791Z,7.60
2018-04-24T18:53:55.305Z,6.83
2018-04-24T18:56:26.226Z,7.23
2018-04-24T18:58:56.917Z,7.63
2018-04-24T19:01:27.537Z,8.63
2018-04-24T19:03:58.462Z,9.17
2018-04-24T19:06:29.280Z,9.07
2018-04-24T19:08:59.621Z,10.07
2018-04-24T19:11:33.161Z,10.73
2018-04-24T19:14:09.625Z,11.90
2018-04-24T19:16:39.944Z,11.40
2018-04-24T19:19:15.582Z,11.10
2018-04-24T19:21:45.914Z,10.57
2018-04-24T19:24:21.614Z,11.57
2018-04-24T19:26:52.100Z,11.73
2018-04-24T19:29:22.776Z,10.70
2018-04-24T19:31:59.309Z,10.20
2018-04-24T19:34:31.187Z,11.40
2018-04-24T19:37:01.780Z,11.20
2018-04-24T19:39:37.781Z,10.53
2018-04-24T19:42:09.680Z,12.07
2018-04-24T19:44:40.142Z,11.83
2018-04-24T19:47:10.741Z,12.33
2018-04-24T19:49:47.505Z,11.43
2018-04-24T19:52:17.976Z,10.30
2018-04-24T19:54:55.090Z,11.60
2018-04-24T19:57:25.423Z,10.77
2018-04-24T19:59:56.166Z,11.23
2018-04-24T20:02:26.798Z,13.07
2018-04-24T20:04:57.337Z,12.30
2018-04-24T20:07:27.539Z,12.63
2018-04-24T20:09:57.831Z,12.67
2018-04-24T20:12:28.448Z,13.30
2018-04-24T20:14:58.950Z,12.63
2018-04-24T20:17:29.751Z,12.40
2018-04-24T20:19:59.966Z,12.40
2018-04-24T20:22:30.106Z,12.77
2018-04-24T20:25:00.638Z,12.23
2018-04-24T20:27:31.036Z,12.47
2018-04-24T20:30:02.431Z,13.03
2018-04-24T20:32:32.816Z,12.67
2018-04-24T20:35:03.220Z,13.20
2018-04-24T20:37:33.616Z,12.77
2018-04-24T20:40:04.341Z,13.47
2018-04-24T20:42:35.065Z,13.73
2018-04-24T20:45:05.239Z,13.40
2018-04-24T20:47:35.721Z,13.80
2018-04-24T20:50:08.484Z,13.52
2018-04-24T20:52:39.961Z,13.80
2018-04-24T20:55:10.462Z,14.13
2018-04-24T20:57:41.147Z,13.67
2018-04-24T21:00:12.036Z,14.30
2018-04-24T21:02:42.146Z,14.97
2018-04-24T21:05:12.516Z,20.00
2018-04-24T21:07:42.826Z,16.73
2018-04-24T21:10:14.379Z,16.65
2018-04-24T21:12:44.226Z,17.17
2018-04-24T21:15:13.890Z,17.27
2018-04-24T21:17:43.873Z,16.10
2018-04-24T21:20:14.220Z,16.57
2018-04-24T21:22:44.459Z,18.27
2018-04-24T21:25:17.816Z,18.87
2018-04-24T21:27:48.237Z,19.07
2018-04-24T21:30:18.588Z,21.23
2018-04-24T21:32:48.448Z,22.03
2018-04-24T21:35:18.449Z,21.60
2018-04-24T21:37:48.307Z,21.10
2018-04-24T21:40:18.588Z,21.00
2018-04-24T21:42:48.498Z,20.80
2018-04-24T21:45:18.330Z,22.33
2018-04-24T21:47:48.152Z,24.40
2018-04-24T21:50:18.325Z,21.70
2018-04-24T21:52:48.463Z,20.53
2018-04-24T21:55:18.337Z,20.10
2018-04-24T21:57:48.355Z,20.27
2018-04-24T22:00:19.167Z,19.83
2018-04-24T22:02:49.046Z,19.60
2018-04-24T22:05:18.939Z,20.83
2018-04-24T22:07:49.620Z,21.80
2018-04-24T22:10:19.353Z,18.97
2018-04-24T22:12:49.412Z,18.73
2018-04-24T22:15:19.553Z,18.10
2018-04-24T22:17:50.060Z,15.87
2018-04-24T22:20:20.062Z,15.67
2018-04-24T22:22:50.114Z,15.47
2018-04-24T22:25:20.632Z,16.47
2018-04-24T22:27:50.533Z,13.53
2018-04-24T22:30:21.004Z,14.07
2018-04-24T22:32:50.942Z,14.07
2018-04-24T22:35:20.912Z,13.80
2018-04-24T22:37:51.119Z,13.77
2018-04-24T22:40:21.149Z,13.73
2018-04-24T22:42:51.039Z,12.93
2018-04-24T22:45:21.029Z,13.23
2018-04-24T22:47:50.843Z,13.67
2018-04-24T22:50:21.392Z,14.57
2018-04-24T22:52:51.302Z,16.73
2018-04-24T22:55:21.245Z,22.13
2018-04-24T22:57:51.048Z,18.23
2018-04-24T23:00:20.988Z,13.77
2018-04-24T23:02:51.187Z,15.53
2018-04-24T23:05:21.589Z,16.77
2018-04-24T23:07:51.820Z,16.93
2018-04-24T23:10:33.148Z,15.13
2018-04-24T23:13:14.620Z,15.40
2018-04-24T23:15:56.214Z,14.90
2018-04-24T23:18:37.082Z,14.80
2018-04-24T23:21:05.682Z,15.33
2018-04-24T23:23:35.534Z,15.63
2018-04-24T23:26:06.065Z,15.83
2018-04-24T23:28:36.123Z,16.50
2018-04-24T23:31:06.083Z,15.47
2018-04-24T23:33:36.103Z,15.07
2018-04-24T23:36:06.216Z,15.87
2018-04-24T23:38:36.020Z,15.03
2018-04-24T23:41:06.118Z,16.07
2018-04-24T23:43:36.202Z,17.03
2018-04-24T23:46:06.280Z,15.77
2018-04-24T23:48:36.601Z,17.87
2018-04-24T23:51:06.638Z,15.43
2018-04-24T23:53:36.674Z,15.30
2018-04-24T23:56:06.791Z,16.07
2018-04-24T23:58:36.809Z,16.70
